Time;durP1;ratioP1;P1;durP2;ratioP2;P2;SDS_P1;SDS_P2;PMS_P1;PMS_P2;Temp;Humidity;BMP_temperature;BMP_pressure;BME280_temperature;BME280_humidity;BME280_pressure;Samples;Min_cycle;Max_cycle;Signal;HPM_P1;HPM_P2
2021/03/20 00:02:22;;;;;;;3.63;2.63;;;1.00;99.90;;;;;;5092488;28;20028;-63
2021/03/20 00:04:48;;;;;;;4.00;2.58;;;1.00;99.90;;;;;;5093479;28;20101;-63
2021/03/20 00:07:13;;;;;;;5.78;3.05;;;1.00;99.90;;;;;;5093192;28;20591;-63
2021/03/20 00:09:39;;;;;;;6.45;2.83;;;1.00;99.90;;;;;;5093429;28;20428;-63
2021/03/20 00:12:05;;;;;;;4.35;2.78;;;0.90;99.90;;;;;;5093427;28;20093;-63
2021/03/20 00:14:31;;;;;;;3.65;2.80;;;0.80;99.90;;;;;;5092220;28;20035;-63
2021/03/20 00:16:56;;;;;;;3.97;2.92;;;0.80;99.90;;;;;;5093686;28;20036;-63
2021/03/20 00:19:22;;;;;;;6.85;2.75;;;0.80;99.90;;;;;;5093334;28;20423;-63
2021/03/20 00:21:48;;;;;;;6.15;2.92;;;0.70;99.90;;;;;;5091770;28;20056;-63
2021/03/20 00:24:14;;;;;;;4.60;2.38;;;0.70;99.90;;;;;;5093592;28;20521;-63
2021/03/20 00:26:40;;;;;;;6.00;2.92;;;0.70;99.90;;;;;;5093574;28;20047;-63
2021/03/20 00:29:06;;;;;;;4.60;2.42;;;0.60;99.90;;;;;;5094585;28;20043;-63
2021/03/20 00:31:32;;;;;;;5.18;2.95;;;0.60;99.90;;;;;;5097175;28;20457;-63
2021/03/20 00:33:58;;;;;;;5.45;2.55;;;0.50;99.90;;;;;;5097106;28;20035;-63
2021/03/20 00:36:23;;;;;;;9.73;3.05;;;0.50;99.90;;;;;;5097104;28;20066;-63
2021/03/20 00:38:49;;;;;;;4.07;2.63;;;0.50;99.90;;;;;;5096782;28;20039;-63
2021/03/20 00:41:15;;;;;;;6.78;3.20;;;0.40;99.90;;;;;;5095505;28;20055;-63
2021/03/20 00:43:40;;;;;;;7.88;3.67;;;0.40;99.90;;;;;;5096972;28;20128;-63
2021/03/20 00:46:08;;;;;;;8.30;3.65;;;0.30;99.90;;;;;;5096916;28;20020;-63
2021/03/20 00:48:38;;;;;;;7.80;3.67;;;0.30;99.90;;;;;;5096894;28;20028;-63
2021/03/20 00:51:03;;;;;;;7.30;4.28;;;0.30;99.90;;;;;;5096283;28;20023;-63
2021/03/20 00:53:30;;;;;;;5.95;3.58;;;0.20;99.90;;;;;;5096770;28;20028;-63
2021/03/20 00:55:56;;;;;;;6.60;3.38;;;0.20;99.90;;;;;;5096770;28;20426;-63
2021/03/20 00:58:36;;;;;;;7.57;3.35;;;0.20;99.90;;;;;;5096687;28;20044;-63
2021/03/20 01:01:05;;;;;;;9.82;3.25;;;0.10;99.90;;;;;;5096568;28;20020;-63
2021/03/20 01:03:31;;;;;;;9.18;3.38;;;0.10;99.90;;;;;;5078128;28;20024;-63
2021/03/20 01:05:57;;;;;;;6.07;3.40;;;0.10;99.90;;;;;;5096276;28;20024;-63
2021/03/20 01:08:23;;;;;;;8.02;3.53;;;0.10;99.90;;;;;;5096223;28;20024;-63
2021/03/20 01:10:50;;;;;;;7.18;3.20;;;0.10;99.90;;;;;;5096448;28;20395;-63
2021/03/20 01:13:16;;;;;;;7.25;3.17;;;0.10;99.90;;;;;;5096444;28;20372;-63
2021/03/20 01:15:42;;;;;;;7.13;3.28;;;0.00;99.90;;;;;;5096050;28;20465;-63
2021/03/20 01:18:09;;;;;;;4.93;3.10;;;0.00;99.90;;;;;;5096300;28;20411;-63
2021/03/20 01:20:36;;;;;;;8.60;3.25;;;-0.10;99.90;;;;;;5096047;28;20024;-63
2021/03/20 01:23:07;;;;;;;7.97;3.45;;;-0.10;99.90;;;;;;5096117;28;20111;-63
2021/03/20 01:25:40;;;;;;;7.72;2.90;;;-0.10;99.90;;;;;;5095617;28;20037;-63
2021/03/20 01:28:06;;;;;;;5.60;3.13;;;-0.10;99.90;;;;;;5096172;28;20028;-63
2021/03/20 01:30:35;;;;;;;8.70;3.15;;;-0.10;99.90;;;;;;5095788;28;20060;-63
2021/03/20 01:33:01;;;;;;;10.88;2.95;;;-0.10;99.90;;;;;;5096019;28;20066;-63
2021/03/20 01:35:27;;;;;;;6.38;2.72;;;-0.10;99.90;;;;;;5094829;28;20468;-63
2021/03/20 01:37:52;;;;;;;7.50;3.13;;;-0.20;99.90;;;;;;5095634;28;20030;-63
2021/03/20 01:40:24;;;;;;;7.85;3.15;;;-0.20;99.90;;;;;;5096014;28;20028;-63
2021/03/20 01:42:50;;;;;;;7.15;3.70;;;-0.20;99.90;;;;;;5094624;28;20047;-63
2021/03/20 01:45:20;;;;;;;6.88;3.30;;;-0.20;99.90;;;;;;5095768;28;20366;-63
2021/03/20 01:48:09;;;;;;;6.03;3.42;;;-0.30;99.90;;;;;;5095740;28;20365;-63
2021/03/20 01:51:04;;;;;;;5.78;3.40;;;-0.40;99.90;;;;;;5096441;28;20016;-63
2021/03/20 01:53:48;;;;;;;6.75;3.70;;;-0.50;99.90;;;;;;5098075;28;20034;-63
2021/03/20 01:56:19;;;;;;;5.90;3.20;;;-0.40;99.90;;;;;;5098153;28;20044;-63
2021/03/20 01:58:46;;;;;;;8.15;3.50;;;-0.50;99.90;;;;;;5097983;28;20028;-63
2021/03/20 02:01:19;;;;;;;7.13;3.22;;;-0.50;99.90;;;;;;5097812;28;20017;-63
2021/03/20 02:03:45;;;;;;;6.78;3.50;;;-0.50;99.90;;;;;;5096362;28;20020;-62
2021/03/20 02:06:11;;;;;;;12.02;4.30;;;-0.50;99.90;;;;;;5096877;28;20024;-63
2021/03/20 02:08:40;;;;;;;9.23;3.95;;;-0.60;99.90;;;;;;5095312;28;20061;-63
2021/03/20 02:11:35;;;;;;;6.97;3.88;;;-0.70;99.90;;;;;;5093608;28;20067;-63
2021/03/20 02:17:15;;;;;;;9.10;3.70;;;-0.70;99.90;;;;;;5112308;27;20591;-63
2021/03/20 02:22:43;;;;;;;8.60;4.43;;;-0.70;99.90;;;;;;5110981;27;20390;-62
2021/03/20 02:25:40;;;;;;;7.28;3.78;;;-0.70;99.90;;;;;;5111682;28;20032;-63
2021/03/20 02:28:35;;;;;;;5.68;3.50;;;-0.70;99.90;;;;;;5111391;28;20016;-62
2021/03/20 02:31:22;;;;;;;7.85;3.67;;;-0.80;99.90;;;;;;5111791;28;20020;-62
2021/03/20 02:34:02;;;;;;;7.30;3.35;;;-0.80;99.90;;;;;;5111577;28;20077;-62
2021/03/20 02:36:57;;;;;;;8.05;3.60;;;-0.80;99.90;;;;;;5109964;28;20435;-63
2021/03/20 02:39:39;;;;;;;5.82;3.30;;;-0.80;99.90;;;;;;5111083;28;20031;-62
2021/03/20 02:42:16;;;;;;;7.70;3.55;;;-0.70;99.90;;;;;;5111585;28;20052;-63
2021/03/20 02:44:56;;;;;;;5.47;3.33;;;-0.80;99.90;;;;;;5111283;28;20027;-63
2021/03/20 02:47:29;;;;;;;9.48;4.10;;;-0.70;99.90;;;;;;5111262;28;20399;-63
2021/03/20 02:53:06;;;;;;;7.28;4.13;;;-0.80;99.90;;;;;;5112283;27;20845;-62
2021/03/20 02:55:39;;;;;;;11.90;4.40;;;-0.70;99.90;;;;;;5111270;28;20039;-63
2021/03/20 02:58:13;;;;;;;5.65;3.55;;;-0.70;99.90;;;;;;5111952;28;20081;-63
2021/03/20 03:00:57;;;;;;;12.07;4.22;;;-0.70;99.90;;;;;;5111309;28;20026;-63
2021/03/20 03:03:27;;;;;;;7.00;4.50;;;-0.70;99.90;;;;;;5111787;28;20015;-63
2021/03/20 03:06:33;;;;;;;12.05;3.92;;;-0.80;99.90;;;;;;5111765;28;20051;-63
2021/03/20 03:09:04;;;;;;;6.63;3.72;;;-0.70;99.90;;;;;;5111235;28;20032;-63
2021/03/20 03:11:44;;;;;;;8.32;3.97;;;-0.70;99.90;;;;;;5111346;28;20446;-63
2021/03/20 03:14:32;;;;;;;7.95;4.45;;;-0.70;99.90;;;;;;5110159;28;20056;-63
2021/03/20 03:17:00;;;;;;;6.60;3.50;;;-0.70;99.90;;;;;;5111490;28;20012;-63
2021/03/20 03:19:36;;;;;;;9.55;4.00;;;-0.70;99.90;;;;;;5111183;28;20464;-63
2021/03/20 03:22:07;;;;;;;11.77;4.53;;;-0.70;99.90;;;;;;5111186;28;20069;-63
2021/03/20 03:24:35;;;;;;;11.20;3.90;;;-0.80;99.90;;;;;;5109875;28;20123;-63
2021/03/20 03:27:06;;;;;;;6.78;3.80;;;-0.70;99.90;;;;;;5111337;28;20085;-63
2021/03/20 03:29:34;;;;;;;6.97;3.78;;;-0.80;99.90;;;;;;5110713;28;20024;-63
2021/03/20 03:32:09;;;;;;;12.07;4.53;;;-0.80;99.90;;;;;;5109364;28;20027;-62
2021/03/20 03:35:01;;;;;;;9.13;3.88;;;-0.80;99.90;;;;;;5111203;28;20020;-63
2021/03/20 03:40:13;;;;;;;9.18;4.00;;;-0.80;99.90;;;;;;5091900;28;20352;-63
2021/03/20 03:42:39;;;;;;;9.13;3.65;;;-0.80;99.90;;;;;;5091581;28;20489;-62
2021/03/20 03:45:09;;;;;;;8.60;4.15;;;-0.80;99.90;;;;;;5091587;28;20024;-62
2021/03/20 03:47:35;;;;;;;12.77;3.75;;;-0.80;99.90;;;;;;5091526;28;20016;-62
2021/03/20 03:50:08;;;;;;;11.75;4.18;;;-0.80;99.90;;;;;;5091460;28;20078;-63
2021/03/20 03:52:33;;;;;;;;;;;-0.80;99.90;;;;;;5091581;28;20474;-63
2021/03/20 03:54:59;;;;;;;10.68;4.28;;;-0.80;99.90;;;;;;5089981;28;19954;-63
2021/03/20 03:57:54;;;;;;;8.95;4.40;;;-0.80;99.90;;;;;;5091093;28;20358;-63
2021/03/20 04:00:28;;;;;;;8.45;4.38;;;-0.80;99.90;;;;;;5091009;28;20025;-63
2021/03/20 04:03:34;;;;;;;10.77;5.53;;;-0.90;99.90;;;;;;5090964;28;20056;-63
2021/03/20 04:06:29;;;;;;;11.18;4.47;;;-0.90;99.90;;;;;;5090567;28;20020;-63
2021/03/20 04:09:35;;;;;;;7.85;3.90;;;-0.90;99.90;;;;;;5090437;28;20036;-63
2021/03/20 04:12:14;;;;;;;7.90;4.10;;;-0.80;99.90;;;;;;5089046;28;20032;-63
2021/03/20 04:14:51;;;;;;;9.18;4.82;;;-0.80;99.90;;;;;;5090743;28;20034;-63
2021/03/20 04:17:25;;;;;;;9.18;4.55;;;-0.80;99.90;;;;;;5089182;28;20029;-62
2021/03/20 04:20:22;;;;;;;10.15;4.25;;;-0.80;99.90;;;;;;5089450;28;20016;-63
2021/03/20 04:23:11;;;;;;;11.18;4.13;;;-0.80;99.90;;;;;;5090209;28;20206;-63
2021/03/20 04:26:16;;;;;;;9.43;4.15;;;-0.80;99.90;;;;;;5090548;28;20012;-63
2021/03/20 04:29:05;;;;;;;9.25;4.35;;;-0.80;99.90;;;;;;5089174;28;20021;-63
2021/03/20 04:31:40;;;;;;;8.65;4.10;;;-0.80;99.90;;;;;;5090202;28;20131;-63
2021/03/20 04:34:20;;;;;;;14.57;4.25;;;-0.80;99.90;;;;;;5090619;28;20476;-63
2021/03/20 04:36:52;;;;;;;8.65;4.28;;;-0.80;99.90;;;;;;5090577;28;20024;-63
2021/03/20 04:39:21;;;;;;;8.40;4.15;;;-0.80;99.90;;;;;;5088642;28;20401;-63
2021/03/20 04:41:50;;;;;;;11.95;4.45;;;-0.80;99.90;;;;;;5090208;28;20021;-63
2021/03/20 04:44:16;;;;;;;8.40;4.05;;;-0.80;99.90;;;;;;5088656;28;20027;-63
2021/03/20 04:46:43;;;;;;;11.48;4.90;;;-0.80;99.90;;;;;;5090129;28;20024;-63
2021/03/20 04:49:40;;;;;;;9.23;4.60;;;-0.90;99.90;;;;;;5090105;28;20024;-63
2021/03/20 04:52:14;;;;;;;9.55;4.43;;;-0.90;99.90;;;;;;5076159;28;20075;-63
2021/03/20 04:54:40;;;;;;;9.85;4.40;;;-0.90;99.90;;;;;;5076728;28;20028;-63
2021/03/20 04:57:32;;;;;;;9.35;4.22;;;-0.90;99.90;;;;;;5076781;28;20082;-63
2021/03/20 05:00:22;;;;;;;11.70;4.32;;;-0.90;99.90;;;;;;5076027;28;20025;-63
2021/03/20 05:02:57;;;;;;;7.43;4.05;;;-0.90;99.90;;;;;;5076619;28;20028;-63
2021/03/20 05:05:29;;;;;;;9.15;4.70;;;-1.00;99.90;;;;;;5076282;28;20028;-63
2021/03/20 05:08:01;;;;;;;8.18;4.93;;;-1.00;99.90;;;;;;5076538;28;20031;-63
2021/03/20 05:10:37;;;;;;;7.93;3.90;;;-1.00;99.90;;;;;;5075924;28;20028;-63
2021/03/20 05:13:09;;;;;;;11.32;4.68;;;-1.10;99.90;;;;;;5076399;28;20021;-63
2021/03/20 05:15:35;;;;;;;6.73;4.17;;;-1.20;99.90;;;;;;5076140;28;20067;-63
2021/03/20 05:18:01;;;;;;;7.72;4.20;;;-1.30;99.90;;;;;;5076247;28;20071;-63
2021/03/20 05:20:26;;;;;;;9.82;4.60;;;-1.40;99.90;;;;;;5075128;28;20571;-63
2021/03/20 05:22:53;;;;;;;9.25;4.90;;;-1.50;99.90;;;;;;5076249;28;20401;-63
2021/03/20 05:25:22;;;;;;;8.73;4.47;;;-1.60;99.90;;;;;;5075922;28;20092;-63
2021/03/20 05:27:48;;;;;;;7.97;4.40;;;-1.60;99.90;;;;;;5075883;28;20104;-63
2021/03/20 05:30:15;;;;;;;11.50;4.47;;;-1.60;99.90;;;;;;5076097;28;20115;-63
2021/03/20 05:32:41;;;;;;;11.77;4.90;;;-1.60;99.90;;;;;;5076041;28;20446;-63
2021/03/20 05:35:11;;;;;;;11.75;4.82;;;-1.60;99.90;;;;;;5076000;28;20021;-63
2021/03/20 05:37:40;;;;;;;10.90;4.28;;;-1.50;99.90;;;;;;5074518;28;20024;-63
2021/03/20 05:40:13;;;;;;;11.38;5.55;;;-1.50;99.90;;;;;;5074008;28;20041;-65
2021/03/20 05:43:21;;;;;;;9.00;4.57;;;-1.40;99.90;;;;;;5075879;28;20089;-63
2021/03/20 05:46:12;;;;;;;9.43;4.20;;;-1.30;99.90;;;;;;5075264;28;20021;-63
2021/03/20 05:48:49;;;;;;;7.40;4.45;;;-1.20;99.90;;;;;;5074723;28;20033;-63
2021/03/20 05:51:45;;;;;;;10.63;4.63;;;-1.20;99.90;;;;;;5075493;28;20078;-63
2021/03/20 05:54:29;;;;;;;11.52;4.97;;;-1.10;99.90;;;;;;5073793;28;20556;-63
2021/03/20 05:57:17;;;;;;;10.25;4.55;;;-1.00;99.90;;;;;;5075309;28;20096;-63
2021/03/20 06:02:51;;;;;;;13.13;4.80;;;-0.70;99.90;;;;;;5112340;27;20397;-63
2021/03/20 06:05:55;;;;;;;10.82;4.60;;;-0.50;99.90;;;;;;5110670;28;20034;-63
2021/03/20 06:09:00;;;;;;;9.05;4.72;;;-0.40;99.90;;;;;;5109997;28;20024;-63
2021/03/20 06:12:05;;;;;;;7.55;4.47;;;-0.30;99.90;;;;;;5111161;28;20024;-63
2021/03/20 06:14:58;;;;;;;9.48;4.85;;;-0.10;99.90;;;;;;5111144;28;20533;-63
2021/03/20 06:18:03;;;;;;;12.48;4.60;;;0.40;99.90;;;;;;5111120;28;20400;-63
2021/03/20 06:20:45;;;;;;;20.55;6.68;;;0.60;99.90;;;;;;5110950;28;20027;-63
2021/03/20 06:23:32;;;;;;;16.60;6.45;;;0.70;99.90;;;;;;5111647;28;20019;-63
2021/03/20 06:26:13;;;;;;;10.18;4.90;;;1.20;99.90;;;;;;5110108;28;20115;-63
2021/03/20 06:29:25;;;;;;;11.05;5.97;;;1.70;99.90;;;;;;5110981;28;20012;-63
2021/03/20 06:31:58;;;;;;;10.35;4.93;;;2.20;99.90;;;;;;5110784;28;20472;-63
2021/03/20 06:34:40;;;;;;;16.88;5.97;;;2.20;99.90;;;;;;5111424;28;20055;-63
2021/03/20 06:37:16;;;;;;;11.18;4.85;;;3.00;99.90;;;;;;5110256;28;20030;-63
2021/03/20 06:39:52;;;;;;;8.60;4.47;;;2.30;99.90;;;;;;5109882;28;20028;-63
2021/03/20 06:42:24;;;;;;;11.88;5.32;;;2.90;99.90;;;;;;5110899;28;20035;-63
2021/03/20 06:45:18;;;;;;;11.35;4.53;;;3.80;99.90;;;;;;5110957;28;20469;-62
2021/03/20 06:47:47;;;;;;;7.75;4.97;;;5.20;99.90;;;;;;5110505;28;20024;-63
2021/03/20 06:50:25;;;;;;;9.63;3.90;;;5.30;99.90;;;;;;5111139;28;20089;-64
2021/03/20 06:52:55;;;;;;;8.00;3.88;;;5.70;99.90;;;;;;5111069;28;20023;-64
2021/03/20 06:55:29;;;;;;;8.70;3.58;;;5.60;99.90;;;;;;5110755;28;20362;-64
2021/03/20 06:57:55;;;;;;;9.27;4.03;;;5.10;99.90;;;;;;5110980;28;20456;-64
2021/03/20 07:00:33;;;;;;;8.52;3.88;;;4.50;99.90;;;;;;5110079;28;20026;-64
2021/03/20 07:03:25;;;;;;;9.23;3.75;;;3.20;99.90;;;;;;5110848;28;20024;-63
2021/03/20 07:06:04;;;;;;;6.93;3.83;;;2.60;99.90;;;;;;5109201;28;20032;-63
2021/03/20 07:08:52;;;;;;;8.10;3.55;;;2.70;99.90;;;;;;5110228;28;20463;-63
2021/03/20 07:11:37;;;;;;;6.22;3.83;;;3.10;99.90;;;;;;5110676;28;20035;-63
2021/03/20 07:14:09;;;;;;;7.53;3.60;;;3.40;99.90;;;;;;5096581;28;20111;-63
2021/03/20 07:16:55;;;;;;;9.55;3.55;;;3.90;99.90;;;;;;5096428;28;20020;-63
2021/03/20 07:19:21;;;;;;;6.97;4.05;;;3.50;99.90;;;;;;5096982;28;20059;-63
2021/03/20 07:22:05;;;;;;;9.15;3.75;;;3.90;99.90;;;;;;5096613;28;20060;-64
2021/03/20 07:24:39;;;;;;;7.88;3.80;;;4.90;99.90;;;;;;5096600;28;20074;-64
2021/03/20 07:27:28;;;;;;;10.18;4.80;;;5.20;99.90;;;;;;5096576;28;20020;-64
2021/03/20 07:30:25;;;;;;;8.88;4.25;;;6.10;99.90;;;;;;5096166;28;20044;-63
2021/03/20 07:32:51;;;;;;;6.43;3.42;;;5.00;99.90;;;;;;5096004;28;20504;-64
2021/03/20 07:38:13;;;;;;;5.88;3.53;;;5.70;99.90;;;;;;5091949;27;20348;-63
2021/03/20 07:40:39;;;;;;;7.20;3.65;;;4.80;99.90;;;;;;5091336;28;20028;-64
2021/03/20 07:43:21;;;;;;;7.72;3.55;;;5.40;99.90;;;;;;5091338;28;20457;-64
2021/03/20 07:45:49;;;;;;;7.13;3.30;;;5.90;99.90;;;;;;5091040;28;20037;-64
2021/03/20 07:48:28;;;;;;;4.90;3.42;;;5.90;99.90;;;;;;5091222;28;20262;-64
2021/03/20 07:51:06;;;;;;;7.38;3.50;;;6.60;99.90;;;;;;5091136;28;20070;-64
2021/03/20 07:53:41;;;;;;;7.13;3.53;;;7.10;99.90;;;;;;5091378;28;20031;-64
2021/03/20 07:56:33;;;;;;;6.10;3.78;;;6.50;99.90;;;;;;5090712;28;20032;-64
2021/03/20 07:59:20;;;;;;;6.13;3.50;;;6.40;99.90;;;;;;5091284;28;20032;-64
2021/03/20 08:01:51;;;;;;;5.47;3.42;;;6.30;99.90;;;;;;5091256;28;20028;-64
2021/03/20 08:04:17;;;;;;;8.45;3.72;;;5.80;99.90;;;;;;5091192;28;20481;-64
2021/03/20 08:06:48;;;;;;;7.03;3.80;;;7.00;99.90;;;;;;5090834;28;20031;-64
2021/03/20 08:09:24;;;;;;;7.43;3.65;;;6.60;99.90;;;;;;5091090;28;20457;-64
2021/03/20 08:12:08;;;;;;;8.38;3.08;;;6.70;99.90;;;;;;5089168;28;20039;-64
2021/03/20 08:14:45;;;;;;;;;;;6.60;99.90;;;;;;5090847;28;20104;-64
2021/03/20 08:17:15;;;;;;;7.40;3.42;;;6.30;99.90;;;;;;5089060;28;19915;-64
2021/03/20 08:19:41;;;;;;;5.45;3.10;;;6.20;99.90;;;;;;5090857;28;20472;-63
2021/03/20 08:22:46;;;;;;;5.07;3.25;;;6.60;99.90;;;;;;5090870;28;20020;-64
2021/03/20 08:25:51;;;;;;;8.20;2.88;;;6.80;99.90;;;;;;5090152;28;20052;-64
2021/03/20 08:28:45;;;;;;;6.63;2.88;;;8.80;99.90;;;;;;5088789;28;20031;-64
2021/03/20 08:31:27;;;;;;;4.80;2.83;;;8.90;99.90;;;;;;5090079;28;20066;-64
2021/03/20 08:34:10;;;;;;;5.25;2.85;;;8.70;99.90;;;;;;5090577;28;20028;-64
2021/03/20 08:39:39;;;;;;;3.35;1.83;;;11.30;75.50;;;;;;5112274;27;20396;-62
2021/03/20 08:44:58;;;;;;;4.22;2.75;;;10.00;76.80;;;;;;5111027;27;20390;-64
2021/03/20 08:47:43;;;;;;;6.83;2.40;;;11.70;56.50;;;;;;5111995;28;20052;-64
2021/03/20 08:50:36;;;;;;;4.85;2.80;;;11.30;57.20;;;;;;5111635;28;20019;-64
2021/03/20 08:56:02;;;;;;;5.80;2.15;;;10.10;65.50;;;;;;5112273;27;20351;-64
2021/03/20 08:58:51;;;;;;;4.95;2.45;;;9.30;75.80;;;;;;5109993;28;20393;-63
2021/03/20 09:04:03;;;;;;;6.07;2.78;;;9.30;83.00;;;;;;5112255;27;20347;-64
2021/03/20 09:06:42;;;;;;;5.28;2.42;;;10.10;73.90;;;;;;5111681;28;20472;-64
2021/03/20 09:09:31;;;;;;;5.70;2.88;;;10.20;74.50;;;;;;5111326;28;20023;-64
2021/03/20 09:12:05;;;;;;;4.03;2.40;;;11.40;61.90;;;;;;5109940;28;20045;-64
2021/03/20 09:14:41;;;;;;;4.55;2.22;;;11.50;61.80;;;;;;5110085;28;20026;-64
2021/03/20 09:17:14;;;;;;;6.13;2.85;;;11.60;54.20;;;;;;5111409;28;20099;-64
2021/03/20 09:20:00;;;;;;;5.03;2.22;;;11.60;55.10;;;;;;5109861;28;20027;-64
2021/03/20 09:22:31;;;;;;;5.25;2.20;;;11.30;54.80;;;;;;5111324;28;20023;-64
2021/03/20 09:25:10;;;;;;;3.30;1.77;;;11.10;54.60;;;;;;5111267;28;20024;-64
2021/03/20 09:28:14;;;;;;;4.38;2.00;;;11.20;45.80;;;;;;5109604;28;20027;-64
2021/03/20 09:30:46;;;;;;;4.72;1.75;;;11.80;46.40;;;;;;5111123;28;20051;-64
2021/03/20 09:33:33;;;;;;;4.18;1.90;;;11.40;47.40;;;;;;5111361;28;20020;-64
2021/03/20 09:36:05;;;;;;;3.28;1.70;;;10.30;49.30;;;;;;5111305;28;20028;-64
2021/03/20 09:44:10;;;;;;;4.28;1.70;;;9.40;45.80;;;;;;5153448;27;20341;-64
2021/03/20 09:51:58;;;;;;;5.70;2.03;;;9.50;43.90;;;;;;5112173;27;20900;-64
2021/03/20 09:59:50;;;;;;;2.20;1.70;;;8.50;48.10;;;;;;5153447;27;20402;-64
2021/03/20 10:07:39;;;;;;;5.63;1.85;;;8.80;48.00;;;;;;5112174;27;20109;-62
2021/03/20 10:15:32;;;;;;;2.58;1.85;;;9.40;46.50;;;;;;5112214;27;20294;-62
2021/03/20 10:18:07;;;;;;;3.75;2.17;;;8.50;49.80;;;;;;5111881;28;20469;-64
2021/03/20 10:20:55;;;;;;;4.55;2.20;;;8.40;60.50;;;;;;5111672;28;20020;-64
2021/03/20 10:23:44;;;;;;;4.90;2.15;;;8.60;60.40;;;;;;5111209;28;20102;-64
2021/03/20 10:26:34;;;;;;;3.47;2.20;;;8.70;55.90;;;;;;5111210;28;20126;-64
2021/03/20 10:29:05;;;;;;;4.85;2.20;;;8.20;58.80;;;;;;5111656;28;20038;-64
2021/03/20 10:31:40;;;;;;;4.97;2.45;;;7.90;61.60;;;;;;5111585;28;20440;-64
2021/03/20 10:34:12;;;;;;;5.03;2.20;;;7.90;65.80;;;;;;5110415;28;20445;-64
2021/03/20 10:36:41;;;;;;;6.15;2.63;;;7.60;63.70;;;;;;5111527;28;20061;-64
2021/03/20 10:39:26;;;;;;;6.70;2.78;;;7.60;66.60;;;;;;5110105;28;20020;-64
2021/03/20 10:41:57;;;;;;;4.07;2.72;;;7.00;77.50;;;;;;5110898;28;20012;-64
2021/03/20 10:44:29;;;;;;;3.30;2.30;;;7.20;74.80;;;;;;5111133;28;20030;-64
2021/03/20 10:47:06;;;;;;;8.20;3.03;;;7.50;82.10;;;;;;5110799;28;20016;-64
2021/03/20 10:49:38;;;;;;;5.18;2.53;;;8.00;81.10;;;;;;5110350;28;20027;-64
2021/03/20 10:52:11;;;;;;;6.27;2.37;;;7.70;78.90;;;;;;5111334;28;20448;-64
2021/03/20 10:54:41;;;;;;;;;;;7.70;86.00;;;;;;5111278;28;20480;-64
2021/03/20 10:57:11;;;;;;;7.45;2.63;;;7.80;69.70;;;;;;5144123;27;19904;-63
2021/03/20 10:59:39;;;;;;;2.97;2.45;;;8.10;72.90;;;;;;5111213;28;20024;-63
2021/03/20 11:02:30;;;;;;;5.63;2.33;;;7.90;65.80;;;;;;5111080;28;20020;-63
2021/03/20 11:05:22;;;;;;;4.70;2.45;;;7.70;62.80;;;;;;5110774;28;20020;-63
2021/03/20 11:07:54;;;;;;;3.17;2.03;;;8.40;59.90;;;;;;5111000;28;20024;-64
2021/03/20 11:10:34;;;;;;;5.28;2.78;;;8.40;56.20;;;;;;5110956;28;20480;-64
2021/03/20 11:13:04;;;;;;;4.65;2.28;;;7.70;55.00;;;;;;5110442;28;20038;-64
2021/03/20 11:15:43;;;;;;;4.88;2.10;;;8.20;56.80;;;;;;5110282;28;20024;-63
2021/03/20 11:18:16;;;;;;;5.07;2.22;;;8.40;57.40;;;;;;5108974;28;20095;-63
2021/03/20 11:20:44;;;;;;;;;;;8.70;55.40;;;;;;5111150;28;20099;-64
2021/03/20 11:23:29;;;;;;;2.83;1.92;;;8.70;54.80;;;;;;5110671;28;19904;-63
2021/03/20 11:25:54;;;;;;;3.50;2.13;;;8.50;53.60;;;;;;5101858;28;20024;-63
2021/03/20 11:28:35;;;;;;;3.50;1.80;;;8.60;53.10;;;;;;5096790;28;20016;-64
2021/03/20 11:31:03;;;;;;;2.78;1.90;;;8.70;47.70;;;;;;5096991;28;20023;-64
2021/03/20 11:33:31;;;;;;;4.68;1.92;;;9.00;44.40;;;;;;5096513;28;20050;-64
2021/03/20 11:36:00;;;;;;;3.20;2.05;;;9.30;43.80;;;;;;5096856;28;20044;-64
2021/03/20 11:38:27;;;;;;;3.13;1.90;;;9.50;42.50;;;;;;5096295;28;20066;-64
2021/03/20 11:43:42;;;;;;;4.28;2.25;;;9.40;42.90;;;;;;5112289;27;20347;-64
2021/03/20 11:46:11;;;;;;;3.10;2.03;;;9.00;45.60;;;;;;5111448;28;20465;-64
2021/03/20 11:48:59;;;;;;;4.97;2.33;;;9.20;45.90;;;;;;5111370;28;20077;-64
2021/03/20 11:51:28;;;;;;;4.25;2.03;;;9.10;44.50;;;;;;5110098;28;20031;-64
2021/03/20 11:53:58;;;;;;;4.18;1.83;;;8.60;42.80;;;;;;5111796;28;20028;-64
2021/03/20 11:56:29;;;;;;;2.60;1.83;;;8.40;44.20;;;;;;5111210;28;20049;-64
2021/03/20 11:58:59;;;;;;;3.55;1.90;;;8.60;45.30;;;;;;5111730;28;20032;-64
2021/03/20 12:01:37;;;;;;;2.42;1.63;;;8.80;43.80;;;;;;5111332;28;20028;-64
2021/03/20 12:04:17;;;;;;;5.13;1.90;;;8.80;40.90;;;;;;5111348;28;20043;-64
2021/03/20 12:06:43;;;;;;;4.18;1.90;;;8.70;41.70;;;;;;5110587;28;20024;-64
2021/03/20 12:09:32;;;;;;;3.17;1.60;;;9.00;39.30;;;;;;5111502;28;20020;-64
2021/03/20 12:11:59;;;;;;;4.50;1.80;;;9.10;40.30;;;;;;5111253;28;20104;-64
2021/03/20 12:14:49;;;;;;;2.65;1.60;;;8.90;36.10;;;;;;5111129;28;20060;-64
2021/03/20 12:17:19;;;;;;;3.10;1.80;;;8.70;36.40;;;;;;5110796;28;20028;-64
2021/03/20 12:22:46;;;;;;;3.60;2.13;;;8.50;37.70;;;;;;5112284;27;20678;-62
2021/03/20 12:25:34;;;;;;;5.38;2.20;;;8.30;44.70;;;;;;5110832;28;20059;-62
2021/03/20 12:28:25;;;;;;;2.97;2.08;;;8.70;43.20;;;;;;5111894;28;20016;-62
2021/03/20 12:31:16;;;;;;;4.40;2.35;;;8.50;42.00;;;;;;5111554;28;20392;-62
2021/03/20 12:34:02;;;;;;;4.40;2.30;;;8.20;43.30;;;;;;5111486;28;20024;-62
2021/03/20 12:36:48;;;;;;;4.90;2.17;;;8.20;43.50;;;;;;5111476;28;20047;-62
2021/03/20 12:39:17;;;;;;;2.90;2.10;;;8.40;41.80;;;;;;5110608;28;20102;-62
2021/03/20 12:41:46;;;;;;;3.42;2.53;;;8.40;41.80;;;;;;5111006;28;20034;-62
2021/03/20 12:44:23;;;;;;;4.82;2.30;;;8.50;44.60;;;;;;5111334;28;20028;-63
2021/03/20 12:46:54;;;;;;;4.70;2.38;;;8.70;44.20;;;;;;5111222;28;20111;-63
2021/03/20 12:49:25;;;;;;;3.45;2.40;;;8.60;45.10;;;;;;5109714;28;20020;-63
2021/03/20 12:51:57;;;;;;;3.85;2.22;;;8.20;46.60;;;;;;5109506;28;20019;-62
2021/03/20 12:54:31;;;;;;;3.38;2.50;;;8.30;47.50;;;;;;5111063;28;20376;-62
2021/03/20 12:56:56;;;;;;;5.05;2.33;;;8.10;47.70;;;;;;5110772;28;20020;-62
2021/03/20 12:59:22;;;;;;;3.83;2.67;;;8.40;52.60;;;;;;5111238;28;20027;-63
2021/03/20 13:01:47;;;;;;;5.20;2.85;;;9.10;52.50;;;;;;5110833;28;20020;-62
2021/03/20 13:04:15;;;;;;;6.13;2.60;;;8.90;51.10;;;;;;5109669;28;20020;-62
2021/03/20 13:06:41;;;;;;;3.50;2.60;;;8.30;47.70;;;;;;5109624;28;20024;-63
2021/03/20 13:09:07;;;;;;;4.55;3.17;;;8.30;49.30;;;;;;5110768;28;20034;-63
2021/03/20 13:11:32;;;;;;;3.67;2.70;;;8.40;50.10;;;;;;5110911;28;20032;-62
2021/03/20 13:14:00;;;;;;;6.30;2.63;;;8.20;50.70;;;;;;5109818;28;20020;-62
2021/03/20 13:16:26;;;;;;;4.22;2.70;;;7.90;51.30;;;;;;5109202;28;20031;-62
2021/03/20 13:18:51;;;;;;;3.65;2.45;;;7.90;53.00;;;;;;5109463;28;20028;-62
2021/03/20 13:21:18;;;;;;;4.68;2.88;;;8.00;52.60;;;;;;5109198;28;20047;-63
2021/03/20 13:23:43;;;;;;;3.53;2.58;;;8.10;50.00;;;;;;5109389;28;20042;-63
2021/03/20 13:26:09;;;;;;;4.38;2.40;;;8.20;50.50;;;;;;5110796;28;20460;-62
2021/03/20 13:28:34;;;;;;;4.32;2.80;;;8.20;51.90;;;;;;5110775;28;20421;-62
2021/03/20 13:31:00;;;;;;;5.45;2.35;;;8.30;52.00;;;;;;5110417;28;20059;-63
2021/03/20 13:33:25;;;;;;;5.75;2.53;;;8.30;52.40;;;;;;5099988;28;20052;-62
2021/03/20 13:35:51;;;;;;;4.50;2.40;;;8.60;51.60;;;;;;5097017;28;20077;-64
2021/03/20 13:38:17;;;;;;;5.75;2.63;;;8.80;50.80;;;;;;5096974;28;20100;-63
2021/03/20 13:40:44;;;;;;;4.40;2.50;;;8.50;51.00;;;;;;5096826;28;20035;-64
2021/03/20 13:43:10;;;;;;;5.40;2.85;;;8.40;50.40;;;;;;5096414;28;20024;-64
2021/03/20 13:45:36;;;;;;;3.72;2.53;;;8.20;48.80;;;;;;5095346;28;20020;-64
2021/03/20 13:48:02;;;;;;;4.15;2.70;;;8.40;50.60;;;;;;5095362;28;20104;-64
2021/03/20 13:50:34;;;;;;;4.53;2.70;;;8.20;50.00;;;;;;5096238;28;20023;-64
2021/03/20 13:53:00;;;;;;;4.07;2.58;;;8.30;50.20;;;;;;5096721;28;20020;-64
2021/03/20 13:55:25;;;;;;;3.35;2.47;;;8.40;51.20;;;;;;5096679;28;20362;-64
2021/03/20 13:57:51;;;;;;;5.85;2.60;;;8.30;54.10;;;;;;5096557;28;20074;-63
2021/03/20 14:00:17;;;;;;;5.90;3.00;;;8.30;52.50;;;;;;5096480;28;20342;-64
2021/03/20 14:02:42;;;;;;;4.97;3.00;;;8.30;55.30;;;;;;5096496;28;20369;-64
2021/03/20 14:05:11;;;;;;;5.65;3.42;;;8.40;55.10;;;;;;5096167;28;20024;-62
2021/03/20 14:07:40;;;;;;;5.72;3.05;;;8.50;55.40;;;;;;5096139;28;20461;-64
2021/03/20 14:10:31;;;;;;;6.05;3.05;;;8.40;58.10;;;;;;5094898;28;20056;-64
2021/03/20 14:12:56;;;;;;;6.38;2.90;;;8.40;58.00;;;;;;5095692;28;20397;-64
2021/03/20 14:15:23;;;;;;;6.35;3.08;;;8.30;60.10;;;;;;5096254;28;20031;-64
2021/03/20 14:17:50;;;;;;;6.88;3.88;;;8.50;58.40;;;;;;5095944;28;20103;-64
2021/03/20 14:20:24;;;;;;;5.70;3.65;;;8.60;59.20;;;;;;5095366;28;20016;-64
2021/03/20 14:22:50;;;;;;;4.75;2.90;;;8.50;55.20;;;;;;5094640;28;20032;-64
2021/03/20 14:25:16;;;;;;;6.30;3.15;;;8.50;55.40;;;;;;5094903;28;20469;-64
2021/03/20 14:27:41;;;;;;;5.15;2.85;;;8.60;55.60;;;;;;5096112;28;20101;-64
2021/03/20 14:30:08;;;;;;;6.72;2.83;;;8.40;53.60;;;;;;5095990;28;20464;-63
2021/03/20 14:32:34;;;;;;;4.43;2.95;;;8.50;54.70;;;;;;5095401;28;20491;-64
2021/03/20 14:34:59;;;;;;;6.88;3.00;;;8.60;55.50;;;;;;5094385;28;20031;-64
2021/03/20 14:37:25;;;;;;;4.88;2.95;;;8.50;54.80;;;;;;5095309;28;20039;-64